createdAt,value
2022-11-09T00:01:40.790Z,75.17
2022-11-09T00:06:42.694Z,74.93
2022-11-09T00:11:44.640Z,74.82
2022-11-09T00:16:46.543Z,75.21
2022-11-09T00:21:48.555Z,74.59
2022-11-09T00:26:51.127Z,74.67
2022-11-09T00:31:53.002Z,74.21
2022-11-09T00:36:54.872Z,74.85
2022-11-09T00:41:56.809Z,74.30
2022-11-09T00:46:58.750Z,74.79
2022-11-09T00:52:00.743Z,74.59
2022-11-09T00:57:02.716Z,74.81
2022-11-09T01:02:05.140Z,74.85
2022-11-09T01:07:09.475Z,74.55
2022-11-09T01:12:11.468Z,74.70
2022-11-09T01:17:13.596Z,74.73
2022-11-09T01:22:16.221Z,74.79
2022-11-09T01:27:18.230Z,74.11
2022-11-09T01:32:20.123Z,74.51
2022-11-09T01:37:22.107Z,74.61
2022-11-09T01:42:27.212Z,74.56
2022-11-09T01:47:29.383Z,74.65
2022-11-09T01:52:35.524Z,74.60
2022-11-09T01:57:43.565Z,74.53
2022-11-09T02:02:53.334Z,74.82
2022-11-09T02:07:57.223Z,74.25
2022-11-09T02:12:59.721Z,74.34
2022-11-09T02:18:03.982Z,74.72
2022-11-09T02:23:07.900Z,74.18
2022-11-09T02:28:10.188Z,74.56
2022-11-09T02:33:12.471Z,74.53
2022-11-09T02:38:15.211Z,74.43
2022-11-09T02:43:19.645Z,74.69
2022-11-09T02:48:22.054Z,74.53
2022-11-09T02:53:24.210Z,74.55
2022-11-09T02:58:26.160Z,74.51
2022-11-09T03:03:28.666Z,74.55
2022-11-09T03:08:30.740Z,74.48
2022-11-09T03:13:33.326Z,74.48
2022-11-09T03:18:35.638Z,74.47
2022-11-09T03:23:37.582Z,74.58
2022-11-09T03:28:39.815Z,74.64
2022-11-09T03:33:41.925Z,74.75
2022-11-09T03:38:44.663Z,74.55
2022-11-09T03:43:47.092Z,74.28
2022-11-09T03:48:49.061Z,74.48
2022-11-09T03:53:50.974Z,74.41
2022-11-09T03:58:52.944Z,74.68
2022-11-09T04:03:54.917Z,74.09
2022-11-09T04:08:56.896Z,74.27
2022-11-09T04:13:58.845Z,74.53
2022-11-09T04:19:00.831Z,73.91
2022-11-09T04:24:02.817Z,74.36
2022-11-09T04:29:04.876Z,73.97
2022-11-09T04:34:06.789Z,73.67
2022-11-09T04:39:09.043Z,73.56
2022-11-09T04:44:11.283Z,73.01
2022-11-09T04:49:13.220Z,73.32
2022-11-09T04:54:15.246Z,73.02
2022-11-09T04:59:17.326Z,72.87
2022-11-09T05:04:19.362Z,73.04
2022-11-09T05:09:21.356Z,72.87
2022-11-09T05:14:23.384Z,72.56
2022-11-09T05:19:25.382Z,72.95
2022-11-09T05:24:27.366Z,72.35
2022-11-09T05:29:29.393Z,71.71
2022-11-09T05:34:31.400Z,72.13
2022-11-09T05:39:33.422Z,71.64
2022-11-09T05:44:35.707Z,71.55
2022-11-09T05:49:37.756Z,71.90
2022-11-09T05:54:39.718Z,71.62
2022-11-09T05:59:41.690Z,72.20
2022-11-09T06:04:43.666Z,72.19
2022-11-09T06:09:45.586Z,71.63
2022-11-09T06:14:47.592Z,71.76
2022-11-09T06:19:49.592Z,71.61
2022-11-09T06:24:51.460Z,71.18
2022-11-09T06:29:53.447Z,71.23
2022-11-09T06:34:55.423Z,70.64
2022-11-09T06:39:57.456Z,71.44
2022-11-09T06:44:59.354Z,70.62
2022-11-09T06:50:01.236Z,70.43
2022-11-09T06:55:04.675Z,69.86
2022-11-09T07:00:07.476Z,70.29
2022-11-09T07:05:09.512Z,70.87
2022-11-09T07:10:11.845Z,70.27
2022-11-09T07:15:14.971Z,70.11
2022-11-09T07:20:16.895Z,70.00
2022-11-09T07:25:19.058Z,70.46
2022-11-09T07:30:21.040Z,70.45
2022-11-09T07:35:23.022Z,69.72
2022-11-09T07:40:24.996Z,69.79
2022-11-09T07:45:27.560Z,69.84
2022-11-09T07:50:30.148Z,69.49
2022-11-09T07:55:32.125Z,69.34
2022-11-09T08:00:35.293Z,69.79
2022-11-09T08:05:37.310Z,69.65
2022-11-09T08:10:39.520Z,69.93
2022-11-09T08:15:42.264Z,70.05
2022-11-09T08:20:44.539Z,69.36
2022-11-09T08:25:47.205Z,69.59
2022-11-09T08:30:56.333Z,69.40
2022-11-09T08:35:58.371Z,69.48
2022-11-09T08:41:01.379Z,69.23
2022-11-09T08:46:03.553Z,68.86
2022-11-09T08:51:05.636Z,69.15
2022-11-09T08:56:08.103Z,68.09
2022-11-09T09:01:16.468Z,68.46
2022-11-09T09:06:19.089Z,68.66
2022-11-09T09:11:21.124Z,68.63
2022-11-09T09:16:23.107Z,68.29
2022-11-09T09:21:25.134Z,68.80
2022-11-09T09:26:27.120Z,68.51
2022-11-09T09:31:29.000Z,68.33
2022-11-09T09:36:31.012Z,68.59
2022-11-09T09:41:51.712Z,68.35
2022-11-09T09:47:01.370Z,68.45
2022-11-09T09:52:06.052Z,68.14
2022-11-09T09:57:13.709Z,68.48
2022-11-09T10:02:18.587Z,68.10
2022-11-09T10:07:39.423Z,68.88
2022-11-09T10:12:47.398Z,68.02
2022-11-09T10:18:05.020Z,68.75
2022-11-09T10:23:15.117Z,67.87
2022-11-09T10:28:17.519Z,68.41
2022-11-09T10:33:21.533Z,68.13
2022-11-09T10:38:28.043Z,68.05
2022-11-09T10:43:48.655Z,67.69
2022-11-09T10:49:27.800Z,68.42
2022-11-09T10:54:48.263Z,68.53
2022-11-09T11:00:27.693Z,68.30
2022-11-09T11:05:56.566Z,68.73
2022-11-09T11:11:35.145Z,68.63
2022-11-09T11:16:56.406Z,68.86
2022-11-09T11:22:23.903Z,69.19
2022-11-09T11:27:43.869Z,69.30
2022-11-09T11:33:12.992Z,69.60
2022-11-09T11:38:42.130Z,69.76
2022-11-09T11:44:08.475Z,69.10
2022-11-09T11:49:43.718Z,69.84
2022-11-09T11:55:19.253Z,69.99
2022-11-09T12:00:49.296Z,69.42
2022-11-09T12:06:09.736Z,70.02
2022-11-09T12:11:48.379Z,69.98
2022-11-09T12:17:08.761Z,69.76
2022-11-09T12:22:29.245Z,70.18
2022-11-09T12:27:56.005Z,70.05
2022-11-09T12:33:24.524Z,70.09
2022-11-09T12:39:04.378Z,69.67
2022-11-09T12:44:27.350Z,70.27
2022-11-09T12:49:47.855Z,69.57
2022-11-09T12:55:12.816Z,69.25
2022-11-09T13:00:35.929Z,69.33
2022-11-09T13:06:15.144Z,69.85
2022-11-09T13:11:37.368Z,69.52
2022-11-09T13:16:59.354Z,69.58
2022-11-09T13:22:23.222Z,69.72
2022-11-09T13:27:47.512Z,69.57
2022-11-09T13:33:10.927Z,69.67
2022-11-09T13:38:32.101Z,69.42
2022-11-09T13:44:07.619Z,69.59
2022-11-09T13:49:47.895Z,69.29
2022-11-09T13:55:16.244Z,69.34
2022-11-09T14:00:37.922Z,70.04
2022-11-09T14:05:59.385Z,69.83
2022-11-09T14:11:31.691Z,69.67
2022-11-09T14:17:04.203Z,69.66
2022-11-09T14:22:24.419Z,69.60
2022-11-09T14:27:50.643Z,69.51
2022-11-09T14:33:21.660Z,69.43
2022-11-09T14:38:46.466Z,69.87
2022-11-09T14:44:06.644Z,70.00
2022-11-09T14:49:27.640Z,69.60
2022-11-09T14:54:49.222Z,69.94
2022-11-09T15:00:21.742Z,69.77
2022-11-09T15:05:42.320Z,69.30
2022-11-09T15:11:02.853Z,69.37
2022-11-09T15:16:24.796Z,68.96
2022-11-09T15:21:45.428Z,69.02
2022-11-09T15:27:25.454Z,68.80
2022-11-09T15:32:45.908Z,68.71
2022-11-09T15:38:06.445Z,68.80
2022-11-09T15:43:27.386Z,68.94
2022-11-09T15:48:47.966Z,68.59
2022-11-09T15:54:08.108Z,68.43
2022-11-09T15:59:28.749Z,69.13
2022-11-09T16:04:49.134Z,68.88
2022-11-09T16:10:13.214Z,68.81
2022-11-09T16:15:34.727Z,69.54
2022-11-09T16:20:54.961Z,69.42
2022-11-09T16:26:16.513Z,69.41
2022-11-09T16:31:52.779Z,69.06
2022-11-09T16:37:13.418Z,69.52
2022-11-09T16:42:33.908Z,69.06
2022-11-09T16:47:56.920Z,68.48
2022-11-09T16:53:17.241Z,69.29
2022-11-09T16:58:37.768Z,69.04
2022-11-09T17:03:58.244Z,68.81
2022-11-09T17:09:20.735Z,69.13
2022-11-09T17:14:41.177Z,68.95
2022-11-09T17:20:05.006Z,68.33
2022-11-09T17:25:25.550Z,68.74
2022-11-09T17:30:45.582Z,68.29
2022-11-09T17:36:07.279Z,68.00
2022-11-09T17:41:27.563Z,68.22
2022-11-09T17:46:48.116Z,68.35
2022-11-09T17:52:08.343Z,68.03
2022-11-09T17:57:28.734Z,68.32
2022-11-09T18:02:48.834Z,68.39
2022-11-09T18:08:10.489Z,67.70
2022-11-09T18:13:30.595Z,67.86
2022-11-09T18:18:50.873Z,67.76
2022-11-09T18:24:10.949Z,67.69
2022-11-09T18:29:31.334Z,67.26
2022-11-09T18:34:51.372Z,67.67
2022-11-09T18:40:14.168Z,67.72
2022-11-09T18:45:34.991Z,67.33
2022-11-09T18:50:56.081Z,67.81
2022-11-09T18:56:21.576Z,67.65
2022-11-09T19:01:42.230Z,67.64
2022-11-09T19:07:03.419Z,66.93
2022-11-09T19:12:24.346Z,67.11
2022-11-09T19:17:45.024Z,66.76
2022-11-09T19:23:05.657Z,66.45
2022-11-09T19:28:25.719Z,66.67
2022-11-09T19:33:46.320Z,66.92
2022-11-09T19:39:06.636Z,66.68
2022-11-09T19:44:27.082Z,66.43
2022-11-09T19:49:47.501Z,66.79
2022-11-09T19:55:08.225Z,66.86
2022-11-09T20:00:28.563Z,66.47
2022-11-09T20:05:53.377Z,66.63
2022-11-09T20:11:35.024Z,66.91
2022-11-09T20:16:59.298Z,66.86
2022-11-09T20:22:23.962Z,66.75
2022-11-09T20:27:44.318Z,66.67
2022-11-09T20:33:04.549Z,66.09
2022-11-09T20:38:24.963Z,65.61
2022-11-09T20:43:45.141Z,66.20
2022-11-09T20:49:05.351Z,66.34
2022-11-09T20:54:25.523Z,65.73
2022-11-09T20:59:45.937Z,66.20
2022-11-09T21:05:06.871Z,66.15
2022-11-09T21:10:27.189Z,66.03
2022-11-09T21:15:47.901Z,65.90
2022-11-09T21:21:09.750Z,66.34
2022-11-09T21:26:49.253Z,65.85
2022-11-09T21:32:11.721Z,66.14
2022-11-09T21:37:32.086Z,66.08
2022-11-09T21:42:54.737Z,66.15
2022-11-09T21:48:15.050Z,66.22
2022-11-09T21:53:37.202Z,66.25
2022-11-09T21:58:57.273Z,66.59
2022-11-09T22:04:17.712Z,66.19
2022-11-09T22:10:05.784Z,65.97
2022-11-09T22:15:36.554Z,65.69
2022-11-09T22:20:57.032Z,65.79
2022-11-09T22:26:18.037Z,66.04
2022-11-09T22:31:38.165Z,66.06
2022-11-09T22:36:58.695Z,66.11
2022-11-09T22:42:19.231Z,65.65
2022-11-09T22:47:39.581Z,65.28
2022-11-09T22:53:03.693Z,65.93
2022-11-09T22:58:25.289Z,65.36
2022-11-09T23:03:46.095Z,65.71
2022-11-09T23:09:06.610Z,65.33
2022-11-09T23:14:45.025Z,64.80
2022-11-09T23:20:06.389Z,65.08
2022-11-09T23:25:45.069Z,65.34
2022-11-09T23:31:07.291Z,65.53
2022-11-09T23:36:27.860Z,65.07
2022-11-09T23:41:47.997Z,65.09
2022-11-09T23:47:08.143Z,65.26
2022-11-09T23:52:28.514Z,65.47
2022-11-09T23:57:48.938Z,65.31
